Terminal Aerodrome Forecast
Issued by NWS Sterling, VA

Current Version | Previous Version | Graphics & Text | Print | Product List | Glossary On
Versions: 1 2 3 4 5 6 7 8 9 10 11 12 13 14 15 16 17 18 19 20 21 22 23 24 25 26 27 28
000
FTUS41 KLWX 261200 AAA
TAFDCA
TAF AMD
KDCA 261258Z 2613/2712 06011G19KT 4SM -RASN BKN011 OVC015
     FM261800 03010G20KT 5SM -RASN OVC008
     FM270200 01011G19KT 4SM -SN OVC008
     FM271100 33010G18KT P6SM OVC008=

USA.gov is the U.S. government's official web portal to all federal, state and local government web resources and services.